Terminal Aerodrome Forecast
Issued by NWS

Home | Current Version | Previous Version | Graphics & Text | Print | Product List | Glossary On
Versions: 1 2 3 4 5 6 7 8 9 10 11 12 13 14 15 16 17 18
000
FTUS43 KGRB 280028 AAA
TAFAUW
TAF AMD
KAUW 280028Z 2800/2824 09009KT 5SM SHRA SCT009 OVC040
      TEMPO 2800/2802 2SM -SHRA BR BKN009
     FM280200 12006KT P6SM VCSH OVC040
     FM280300 13005KT 5SM BR OVC010
     FM280900 13004KT 3SM BR OVC003
     FM281500 16008KT P6SM VCSH OVC003
     FM281600 17008KT P6SM VCSH OVC008
     FM281700 17009KT P6SM VCSH BKN015
     FM281900 18010KT P6SM VCSH BKN040=

USA.gov is the U.S. government's official web portal to all federal, state and local government web resources and services.